sensor_id;sensor_type;location;lat;lon;timestamp;temperature;humidity
15296;DHT22;7749;49.964;7.890;2024-01-06T00:01:22;4.90;99.90
15296;DHT22;7749;49.964;7.890;2024-01-06T00:03:50;4.80;99.90
15296;DHT22;7749;49.964;7.890;2024-01-06T00:06:17;4.90;99.90
15296;DHT22;7749;49.964;7.890;2024-01-06T00:08:45;4.90;99.90
15296;DHT22;7749;49.964;7.890;2024-01-06T00:11:13;4.90;99.90
15296;DHT22;7749;49.964;7.890;2024-01-06T00:13:40;4.90;99.90
15296;DHT22;7749;49.964;7.890;2024-01-06T00:16:08;5.00;99.90
15296;DHT22;7749;49.964;7.890;2024-01-06T00:18:35;5.00;99.90
15296;DHT22;7749;49.964;7.890;2024-01-06T00:21:03;5.00;99.90
15296;DHT22;7749;49.964;7.890;2024-01-06T00:23:30;5.00;99.90
15296;DHT22;7749;49.964;7.890;2024-01-06T00:25:58;4.90;99.90
15296;DHT22;7749;49.964;7.890;2024-01-06T00:28:26;4.90;99.90
15296;DHT22;7749;49.964;7.890;2024-01-06T00:30:53;5.00;99.90
15296;DHT22;7749;49.964;7.890;2024-01-06T00:33:21;5.00;99.90
15296;DHT22;7749;49.964;7.890;2024-01-06T00:35:48;5.00;99.90
15296;DHT22;7749;49.964;7.890;2024-01-06T00:38:16;5.00;99.90
15296;DHT22;7749;49.964;7.890;2024-01-06T00:40:44;5.00;99.90
15296;DHT22;7749;49.964;7.890;2024-01-06T00:43:11;5.00;99.90
15296;DHT22;7749;49.964;7.890;2024-01-06T00:45:38;5.10;99.90
15296;DHT22;7749;49.964;7.890;2024-01-06T00:48:06;5.10;99.90
15296;DHT22;7749;49.964;7.890;2024-01-06T00:50:34;5.20;99.90
15296;DHT22;7749;49.964;7.890;2024-01-06T00:53:02;5.20;99.90
15296;DHT22;7749;49.964;7.890;2024-01-06T00:55:29;5.30;99.90
15296;DHT22;7749;49.964;7.890;2024-01-06T00:57:57;5.20;99.90
15296;DHT22;7749;49.964;7.890;2024-01-06T01:00:24;5.30;99.90
15296;DHT22;7749;49.964;7.890;2024-01-06T01:02:52;5.30;99.90
15296;DHT22;7749;49.964;7.890;2024-01-06T01:05:20;5.30;99.90
15296;DHT22;7749;49.964;7.890;2024-01-06T01:07:47;5.30;99.90
15296;DHT22;7749;49.964;7.890;2024-01-06T01:10:15;5.30;99.90
15296;DHT22;7749;49.964;7.890;2024-01-06T01:12:42;5.20;99.90
15296;DHT22;7749;49.964;7.890;2024-01-06T01:15:10;5.30;99.90
15296;DHT22;7749;49.964;7.890;2024-01-06T01:17:38;5.20;99.90
15296;DHT22;7749;49.964;7.890;2024-01-06T01:20:06;5.20;99.90
15296;DHT22;7749;49.964;7.890;2024-01-06T01:22:33;5.20;99.90
15296;DHT22;7749;49.964;7.890;2024-01-06T01:25:01;5.20;99.90
15296;DHT22;7749;49.964;7.890;2024-01-06T01:27:33;5.30;99.90
15296;DHT22;7749;49.964;7.890;2024-01-06T01:30:01;5.30;99.90
15296;DHT22;7749;49.964;7.890;2024-01-06T01:32:28;5.30;99.90
15296;DHT22;7749;49.964;7.890;2024-01-06T01:34:56;5.30;99.90
15296;DHT22;7749;49.964;7.890;2024-01-06T01:37:23;5.30;99.90
15296;DHT22;7749;49.964;7.890;2024-01-06T01:39:51;5.30;99.90
15296;DHT22;7749;49.964;7.890;2024-01-06T01:42:18;5.30;99.90
15296;DHT22;7749;49.964;7.890;2024-01-06T01:44:46;5.30;99.90
15296;DHT22;7749;49.964;7.890;2024-01-06T01:47:13;5.30;99.90
15296;DHT22;7749;49.964;7.890;2024-01-06T01:49:46;5.30;99.90
15296;DHT22;7749;49.964;7.890;2024-01-06T01:52:16;5.40;99.90
15296;DHT22;7749;49.964;7.890;2024-01-06T01:54:44;5.40;99.90
15296;DHT22;7749;49.964;7.890;2024-01-06T01:57:14;5.40;99.90
15296;DHT22;7749;49.964;7.890;2024-01-06T01:59:42;5.40;99.90
15296;DHT22;7749;49.964;7.890;2024-01-06T02:02:10;5.50;99.90
15296;DHT22;7749;49.964;7.890;2024-01-06T02:04:38;5.50;99.90
15296;DHT22;7749;49.964;7.890;2024-01-06T02:07:06;5.50;99.90
15296;DHT22;7749;49.964;7.890;2024-01-06T02:09:33;5.50;99.90
15296;DHT22;7749;49.964;7.890;2024-01-06T02:12:01;5.50;99.90
15296;DHT22;7749;49.964;7.890;2024-01-06T02:14:28;5.50;99.90
15296;DHT22;7749;49.964;7.890;2024-01-06T02:16:56;5.50;99.90
15296;DHT22;7749;49.964;7.890;2024-01-06T02:19:25;5.50;99.90
15296;DHT22;7749;49.964;7.890;2024-01-06T02:21:53;5.60;99.90
15296;DHT22;7749;49.964;7.890;2024-01-06T02:24:21;5.60;99.90
15296;DHT22;7749;49.964;7.890;2024-01-06T02:26:48;5.60;99.90
15296;DHT22;7749;49.964;7.890;2024-01-06T02:29:16;5.70;99.90
15296;DHT22;7749;49.964;7.890;2024-01-06T02:31:43;5.70;99.90
15296;DHT22;7749;49.964;7.890;2024-01-06T02:34:11;5.70;99.90
15296;DHT22;7749;49.964;7.890;2024-01-06T02:36:39;5.70;99.90
15296;DHT22;7749;49.964;7.890;2024-01-06T02:39:06;5.70;99.90
15296;DHT22;7749;49.964;7.890;2024-01-06T02:41:34;5.70;99.90
15296;DHT22;7749;49.964;7.890;2024-01-06T02:44:03;5.80;99.90
15296;DHT22;7749;49.964;7.890;2024-01-06T02:46:30;5.80;99.90
15296;DHT22;7749;49.964;7.890;2024-01-06T02:48:58;5.80;99.90
15296;DHT22;7749;49.964;7.890;2024-01-06T02:51:26;5.90;99.90
15296;DHT22;7749;49.964;7.890;2024-01-06T02:53:53;5.90;99.90
15296;DHT22;7749;49.964;7.890;2024-01-06T02:56:20;5.90;99.90
15296;DHT22;7749;49.964;7.890;2024-01-06T02:58:48;5.90;99.90
15296;DHT22;7749;49.964;7.890;2024-01-06T03:01:15;5.90;99.90
15296;DHT22;7749;49.964;7.890;2024-01-06T03:03:43;5.90;99.90
15296;DHT22;7749;49.964;7.890;2024-01-06T03:06:11;5.90;99.90
15296;DHT22;7749;49.964;7.890;2024-01-06T03:08:38;5.80;99.90
15296;DHT22;7749;49.964;7.890;2024-01-06T03:11:06;5.90;99.90
15296;DHT22;7749;49.964;7.890;2024-01-06T03:13:33;5.90;99.90
15296;DHT22;7749;49.964;7.890;2024-01-06T03:16:04;5.90;99.90
15296;DHT22;7749;49.964;7.890;2024-01-06T03:18:32;5.90;99.90
15296;DHT22;7749;49.964;7.890;2024-01-06T03:21:00;5.90;99.90
15296;DHT22;7749;49.964;7.890;2024-01-06T03:23:28;5.90;99.90
15296;DHT22;7749;49.964;7.890;2024-01-06T03:25:55;5.90;99.90
15296;DHT22;7749;49.964;7.890;2024-01-06T03:28:22;5.80;99.90
15296;DHT22;7749;49.964;7.890;2024-01-06T03:30:50;5.90;99.90
15296;DHT22;7749;49.964;7.890;2024-01-06T03:33:17;5.90;99.90
15296;DHT22;7749;49.964;7.890;2024-01-06T03:35:45;5.90;99.90
15296;DHT22;7749;49.964;7.890;2024-01-06T03:38:12;5.90;99.90
15296;DHT22;7749;49.964;7.890;2024-01-06T03:40:40;6.00;99.90
15296;DHT22;7749;49.964;7.890;2024-01-06T03:43:07;6.00;99.90
15296;DHT22;7749;49.964;7.890;2024-01-06T03:45:35;6.00;99.90
15296;DHT22;7749;49.964;7.890;2024-01-06T03:48:03;6.10;99.90
15296;DHT22;7749;49.964;7.890;2024-01-06T03:50:30;6.10;99.90
15296;DHT22;7749;49.964;7.890;2024-01-06T03:52:58;6.10;99.90
15296;DHT22;7749;49.964;7.890;2024-01-06T03:55:25;6.10;99.90
15296;DHT22;7749;49.964;7.890;2024-01-06T03:57:52;6.10;99.90
15296;DHT22;7749;49.964;7.890;2024-01-06T04:00:20;6.10;99.90
15296;DHT22;7749;49.964;7.890;2024-01-06T04:02:48;6.10;99.90
15296;DHT22;7749;49.964;7.890;2024-01-06T04:05:15;6.10;99.90
15296;DHT22;7749;49.964;7.890;2024-01-06T04:07:42;6.00;99.90
15296;DHT22;7749;49.964;7.890;2024-01-06T04:10:10;6.00;99.90
15296;DHT22;7749;49.964;7.890;2024-01-06T04:12:37;6.00;99.90
15296;DHT22;7749;49.964;7.890;2024-01-06T04:15:05;6.00;99.90
15296;DHT22;7749;49.964;7.890;2024-01-06T04:17:33;6.10;99.90
15296;DHT22;7749;49.964;7.890;2024-01-06T04:20:00;6.00;99.90
15296;DHT22;7749;49.964;7.890;2024-01-06T04:26:15;6.00;99.90
15296;DHT22;7749;49.964;7.890;2024-01-06T04:34:36;6.10;99.90
15296;DHT22;7749;49.964;7.890;2024-01-06T04:38:16;6.10;99.90
15296;DHT22;7749;49.964;7.890;2024-01-06T04:41:17;6.10;99.90
15296;DHT22;7749;49.964;7.890;2024-01-06T04:44:19;6.00;99.90
15296;DHT22;7749;49.964;7.890;2024-01-06T04:50:37;5.90;99.90
15296;DHT22;7749;49.964;7.890;2024-01-06T04:53:34;5.90;99.90
15296;DHT22;7749;49.964;7.890;2024-01-06T04:56:37;5.90;99.90
15296;DHT22;7749;49.964;7.890;2024-01-06T04:59:16;5.90;99.90
15296;DHT22;7749;49.964;7.890;2024-01-06T05:01:49;5.90;99.90
15296;DHT22;7749;49.964;7.890;2024-01-06T05:04:30;5.90;99.90
15296;DHT22;7749;49.964;7.890;2024-01-06T05:07:14;6.00;99.90
15296;DHT22;7749;49.964;7.890;2024-01-06T05:10:12;6.00;99.90
15296;DHT22;7749;49.964;7.890;2024-01-06T05:12:43;6.00;99.90
15296;DHT22;7749;49.964;7.890;2024-01-06T05:15:20;6.00;99.90
15296;DHT22;7749;49.964;7.890;2024-01-06T05:17:51;6.00;99.90
15296;DHT22;7749;49.964;7.890;2024-01-06T05:20:26;6.10;99.90
15296;DHT22;7749;49.964;7.890;2024-01-06T05:23:01;6.10;99.90
15296;DHT22;7749;49.964;7.890;2024-01-06T05:25:30;6.00;99.90
15296;DHT22;7749;49.964;7.890;2024-01-06T05:31:24;6.00;99.90
15296;DHT22;7749;49.964;7.890;2024-01-06T05:37:58;6.10;99.90
15296;DHT22;7749;49.964;7.890;2024-01-06T05:45:27;6.10;99.90
15296;DHT22;7749;49.964;7.890;2024-01-06T05:53:00;6.10;99.90
15296;DHT22;7749;49.964;7.890;2024-01-06T05:56:41;6.10;99.90
15296;DHT22;7749;49.964;7.890;2024-01-06T05:59:41;6.10;99.90
15296;DHT22;7749;49.964;7.890;2024-01-06T06:02:50;6.10;99.90
15296;DHT22;7749;49.964;7.890;2024-01-06T06:05:53;6.00;99.90
15296;DHT22;7749;49.964;7.890;2024-01-06T06:09:46;6.10;99.90
15296;DHT22;7749;49.964;7.890;2024-01-06T06:18:21;6.10;99.90
15296;DHT22;7749;49.964;7.890;2024-01-06T06:21:39;6.10;99.90
15296;DHT22;7749;49.964;7.890;2024-01-06T06:24:24;6.10;99.90
15296;DHT22;7749;49.964;7.890;2024-01-06T06:27:40;6.10;99.90
15296;DHT22;7749;49.964;7.890;2024-01-06T06:30:41;6.20;99.90
15296;DHT22;7749;49.964;7.890;2024-01-06T06:36:26;6.20;99.90
15296;DHT22;7749;49.964;7.890;2024-01-06T06:39:09;6.20;99.90
15296;DHT22;7749;49.964;7.890;2024-01-06T06:41:44;6.20;99.90
15296;DHT22;7749;49.964;7.890;2024-01-06T06:44:13;6.20;99.90
15296;DHT22;7749;49.964;7.890;2024-01-06T06:46:40;6.20;99.90
15296;DHT22;7749;49.964;7.890;2024-01-06T06:49:08;6.20;99.90
15296;DHT22;7749;49.964;7.890;2024-01-06T06:51:36;6.20;99.90
15296;DHT22;7749;49.964;7.890;2024-01-06T06:54:03;6.20;99.90
15296;DHT22;7749;49.964;7.890;2024-01-06T06:56:32;6.20;99.90
15296;DHT22;7749;49.964;7.890;2024-01-06T06:58:59;6.20;99.90
15296;DHT22;7749;49.964;7.890;2024-01-06T07:01:27;6.20;99.90
15296;DHT22;7749;49.964;7.890;2024-01-06T07:03:58;6.20;99.90
15296;DHT22;7749;49.964;7.890;2024-01-06T07:06:26;6.20;99.90
15296;DHT22;7749;49.964;7.890;2024-01-06T07:08:54;6.20;99.90
15296;DHT22;7749;49.964;7.890;2024-01-06T07:11:23;6.20;99.90
15296;DHT22;7749;49.964;7.890;2024-01-06T07:13:50;6.20;99.90
15296;DHT22;7749;49.964;7.890;2024-01-06T07:16:18;6.10;99.90
15296;DHT22;7749;49.964;7.890;2024-01-06T07:18:46;6.20;99.90
15296;DHT22;7749;49.964;7.890;2024-01-06T07:21:14;6.20;99.90
15296;DHT22;7749;49.964;7.890;2024-01-06T07:23:42;6.20;99.90
15296;DHT22;7749;49.964;7.890;2024-01-06T07:26:10;6.30;99.90
15296;DHT22;7749;49.964;7.890;2024-01-06T07:28:38;6.30;99.90
15296;DHT22;7749;49.964;7.890;2024-01-06T07:31:06;6.30;99.90
15296;DHT22;7749;49.964;7.890;2024-01-06T07:33:34;6.30;99.90
15296;DHT22;7749;49.964;7.890;2024-01-06T07:36:02;6.30;99.90
15296;DHT22;7749;49.964;7.890;2024-01-06T07:38:30;6.30;99.90
15296;DHT22;7749;49.964;7.890;2024-01-06T07:40:58;6.30;99.90
15296;DHT22;7749;49.964;7.890;2024-01-06T07:43:26;6.40;99.90
15296;DHT22;7749;49.964;7.890;2024-01-06T07:45:53;6.30;99.90
15296;DHT22;7749;49.964;7.890;2024-01-06T07:48:21;6.40;99.90
15296;DHT22;7749;49.964;7.890;2024-01-06T07:50:50;6.30;99.90
15296;DHT22;7749;49.964;7.890;2024-01-06T07:53:17;6.40;99.90
15296;DHT22;7749;49.964;7.890;2024-01-06T07:55:45;6.40;99.90
15296;DHT22;7749;49.964;7.890;2024-01-06T07:58:12;6.40;99.90
15296;DHT22;7749;49.964;7.890;2024-01-06T08:00:40;6.50;99.90
15296;DHT22;7749;49.964;7.890;2024-01-06T08:03:08;6.50;99.90
15296;DHT22;7749;49.964;7.890;2024-01-06T08:05:35;6.50;99.90
15296;DHT22;7749;49.964;7.890;2024-01-06T08:08:04;6.50;99.90
15296;DHT22;7749;49.964;7.890;2024-01-06T08:10:32;6.50;99.90
15296;DHT22;7749;49.964;7.890;2024-01-06T08:13:00;6.50;99.90
15296;DHT22;7749;49.964;7.890;2024-01-06T08:15:27;6.50;99.90
15296;DHT22;7749;49.964;7.890;2024-01-06T08:17:55;6.50;99.90
15296;DHT22;7749;49.964;7.890;2024-01-06T08:20:22;6.50;99.90
15296;DHT22;7749;49.964;7.890;2024-01-06T08:22:50;6.50;99.90
15296;DHT22;7749;49.964;7.890;2024-01-06T08:25:18;6.50;99.90
15296;DHT22;7749;49.964;7.890;2024-01-06T08:27:45;6.60;99.90
15296;DHT22;7749;49.964;7.890;2024-01-06T08:30:13;6.70;99.90
15296;DHT22;7749;49.964;7.890;2024-01-06T08:32:40;6.80;99.90
15296;DHT22;7749;49.964;7.890;2024-01-06T08:35:09;6.70;99.90
15296;DHT22;7749;49.964;7.890;2024-01-06T08:37:39;6.70;99.90
15296;DHT22;7749;49.964;7.890;2024-01-06T08:40:10;6.80;99.90
15296;DHT22;7749;49.964;7.890;2024-01-06T08:42:38;6.80;99.90
15296;DHT22;7749;49.964;7.890;2024-01-06T08:45:05;6.80;99.90
15296;DHT22;7749;49.964;7.890;2024-01-06T08:47:33;6.80;99.90
15296;DHT22;7749;49.964;7.890;2024-01-06T08:50:00;6.80;99.90
15296;DHT22;7749;49.964;7.890;2024-01-06T08:52:28;6.80;99.90
15296;DHT22;7749;49.964;7.890;2024-01-06T08:54:56;6.80;99.90
15296;DHT22;7749;49.964;7.890;2024-01-06T08:57:23;6.90;99.90
15296;DHT22;7749;49.964;7.890;2024-01-06T08:59:50;6.90;99.90
15296;DHT22;7749;49.964;7.890;2024-01-06T09:02:18;6.80;99.90
15296;DHT22;7749;49.964;7.890;2024-01-06T09:04:45;6.90;99.90
15296;DHT22;7749;49.964;7.890;2024-01-06T09:07:13;6.90;99.90
15296;DHT22;7749;49.964;7.890;2024-01-06T09:09:44;6.90;99.90
15296;DHT22;7749;49.964;7.890;2024-01-06T09:12:41;6.90;99.90
15296;DHT22;7749;49.964;7.890;2024-01-06T09:15:09;6.90;99.90
15296;DHT22;7749;49.964;7.890;2024-01-06T09:17:36;7.00;99.90
15296;DHT22;7749;49.964;7.890;2024-01-06T09:20:04;7.00;99.90
15296;DHT22;7749;49.964;7.890;2024-01-06T09:22:32;7.00;99.90
15296;DHT22;7749;49.964;7.890;2024-01-06T09:24:59;7.10;99.90
15296;DHT22;7749;49.964;7.890;2024-01-06T09:27:27;7.00;99.90
15296;DHT22;7749;49.964;7.890;2024-01-06T09:29:54;7.10;99.90
15296;DHT22;7749;49.964;7.890;2024-01-06T09:32:22;7.10;99.90
15296;DHT22;7749;49.964;7.890;2024-01-06T09:34:50;7.10;99.90
15296;DHT22;7749;49.964;7.890;2024-01-06T09:37:18;7.10;99.90
15296;DHT22;7749;49.964;7.890;2024-01-06T09:39:45;7.20;99.90
15296;DHT22;7749;49.964;7.890;2024-01-06T09:42:12;7.20;99.90
15296;DHT22;7749;49.964;7.890;2024-01-06T09:44:40;7.20;99.90
15296;DHT22;7749;49.964;7.890;2024-01-06T09:47:10;7.20;99.90
15296;DHT22;7749;49.964;7.890;2024-01-06T09:49:39;7.20;99.90
15296;DHT22;7749;49.964;7.890;2024-01-06T09:52:13;7.20;99.90
15296;DHT22;7749;49.964;7.890;2024-01-06T09:54:52;7.30;99.90
15296;DHT22;7749;49.964;7.890;2024-01-06T09:57:20;7.30;99.90
15296;DHT22;7749;49.964;7.890;2024-01-06T09:59:48;7.30;99.90
15296;DHT22;7749;49.964;7.890;2024-01-06T10:02:17;7.30;99.90
15296;DHT22;7749;49.964;7.890;2024-01-06T10:04:44;7.30;99.90
15296;DHT22;7749;49.964;7.890;2024-01-06T10:07:12;7.30;99.90
15296;DHT22;7749;49.964;7.890;2024-01-06T10:09:41;7.40;99.90
15296;DHT22;7749;49.964;7.890;2024-01-06T10:12:10;7.40;99.90
15296;DHT22;7749;49.964;7.890;2024-01-06T10:14:38;7.40;99.90
15296;DHT22;7749;49.964;7.890;2024-01-06T10:17:07;7.50;99.90
15296;DHT22;7749;49.964;7.890;2024-01-06T10:19:35;7.50;99.90
15296;DHT22;7749;49.964;7.890;2024-01-06T10:22:05;7.50;99.90
15296;DHT22;7749;49.964;7.890;2024-01-06T10:24:37;7.60;99.90
15296;DHT22;7749;49.964;7.890;2024-01-06T10:27:05;7.60;99.90
15296;DHT22;7749;49.964;7.890;2024-01-06T10:29:33;7.70;99.90
15296;DHT22;7749;49.964;7.890;2024-01-06T10:32:01;7.70;99.90
15296;DHT22;7749;49.964;7.890;2024-01-06T10:34:29;7.80;99.90
15296;DHT22;7749;49.964;7.890;2024-01-06T10:36:59;7.90;99.90
15296;DHT22;7749;49.964;7.890;2024-01-06T10:39:26;7.90;99.90
15296;DHT22;7749;49.964;7.890;2024-01-06T10:41:57;8.10;99.90
15296;DHT22;7749;49.964;7.890;2024-01-06T10:44:26;8.10;99.90
15296;DHT22;7749;49.964;7.890;2024-01-06T10:46:57;8.30;99.90
15296;DHT22;7749;49.964;7.890;2024-01-06T10:49:27;8.40;99.90
15296;DHT22;7749;49.964;7.890;2024-01-06T10:51:56;8.50;99.90
15296;DHT22;7749;49.964;7.890;2024-01-06T10:54:27;8.50;99.90
15296;DHT22;7749;49.964;7.890;2024-01-06T10:56:57;8.60;99.90
15296;DHT22;7749;49.964;7.890;2024-01-06T10:59:26;8.60;99.90
15296;DHT22;7749;49.964;7.890;2024-01-06T11:01:56;8.70;99.90
15296;DHT22;7749;49.964;7.890;2024-01-06T11:04:24;8.50;99.90
15296;DHT22;7749;49.964;7.890;2024-01-06T11:06:52;8.50;99.90
15296;DHT22;7749;49.964;7.890;2024-01-06T11:09:24;8.50;99.90
15296;DHT22;7749;49.964;7.890;2024-01-06T11:11:54;8.50;99.90
15296;DHT22;7749;49.964;7.890;2024-01-06T11:14:24;8.60;99.90
15296;DHT22;7749;49.964;7.890;2024-01-06T11:16:53;8.50;99.90
15296;DHT22;7749;49.964;7.890;2024-01-06T11:22:29;8.30;99.90
15296;DHT22;7749;49.964;7.890;2024-01-06T11:25:14;8.40;99.90
15296;DHT22;7749;49.964;7.890;2024-01-06T11:27:43;8.50;99.90
15296;DHT22;7749;49.964;7.890;2024-01-06T11:30:26;8.40;99.90
15296;DHT22;7749;49.964;7.890;2024-01-06T11:32:56;8.60;99.90
15296;DHT22;7749;49.964;7.890;2024-01-06T11:35:27;8.60;99.90
15296;DHT22;7749;49.964;7.890;2024-01-06T11:37:56;8.60;99.90
15296;DHT22;7749;49.964;7.890;2024-01-06T11:40:31;8.60;99.90
15296;DHT22;7749;49.964;7.890;2024-01-06T11:45:27;8.60;99.90
15296;DHT22;7749;49.964;7.890;2024-01-06T11:48:01;8.60;99.90
15296;DHT22;7749;49.964;7.890;2024-01-06T11:50:39;8.50;99.90
15296;DHT22;7749;49.964;7.890;2024-01-06T11:53:18;8.50;99.90
15296;DHT22;7749;49.964;7.890;2024-01-06T11:55:49;8.50;99.90
15296;DHT22;7749;49.964;7.890;2024-01-06T11:58:39;8.30;99.90
15296;DHT22;7749;49.964;7.890;2024-01-06T12:01:07;8.30;99.90
15296;DHT22;7749;49.964;7.890;2024-01-06T12:03:36;8.30;99.90
15296;DHT22;7749;49.964;7.890;2024-01-06T12:06:13;8.30;99.90
15296;DHT22;7749;49.964;7.890;2024-01-06T12:08:45;8.20;99.90
15296;DHT22;7749;49.964;7.890;2024-01-06T12:11:17;8.00;99.90
15296;DHT22;7749;49.964;7.890;2024-01-06T12:13:52;7.90;99.90
15296;DHT22;7749;49.964;7.890;2024-01-06T12:16:19;7.80;99.90
15296;DHT22;7749;49.964;7.890;2024-01-06T12:18:49;7.80;99.90
15296;DHT22;7749;49.964;7.890;2024-01-06T12:21:17;7.80;99.90
15296;DHT22;7749;49.964;7.890;2024-01-06T12:23:48;7.70;99.90
15296;DHT22;7749;49.964;7.890;2024-01-06T12:26:19;7.70;99.90
15296;DHT22;7749;49.964;7.890;2024-01-06T12:28:49;7.70;99.90
15296;DHT22;7749;49.964;7.890;2024-01-06T12:31:20;7.70;99.90
15296;DHT22;7749;49.964;7.890;2024-01-06T12:33:50;7.70;99.90
15296;DHT22;7749;49.964;7.890;2024-01-06T12:36:18;7.70;99.90
15296;DHT22;7749;49.964;7.890;2024-01-06T12:38:53;7.60;99.90
15296;DHT22;7749;49.964;7.890;2024-01-06T12:41:23;7.70;99.90
15296;DHT22;7749;49.964;7.890;2024-01-06T12:43:50;7.70;99.90
15296;DHT22;7749;49.964;7.890;2024-01-06T12:46:17;7.80;99.90
15296;DHT22;7749;49.964;7.890;2024-01-06T12:48:45;7.70;99.90
15296;DHT22;7749;49.964;7.890;2024-01-06T12:51:13;7.60;99.90
15296;DHT22;7749;49.964;7.890;2024-01-06T12:53:40;7.50;99.90
15296;DHT22;7749;49.964;7.890;2024-01-06T12:56:08;7.50;99.90
15296;DHT22;7749;49.964;7.890;2024-01-06T12:58:35;7.60;99.90
15296;DHT22;7749;49.964;7.890;2024-01-06T13:01:03;7.50;99.90
15296;DHT22;7749;49.964;7.890;2024-01-06T13:03:31;7.50;99.90
15296;DHT22;7749;49.964;7.890;2024-01-06T13:06:00;7.50;99.90
15296;DHT22;7749;49.964;7.890;2024-01-06T13:08:28;7.40;99.90
15296;DHT22;7749;49.964;7.890;2024-01-06T13:10:56;7.50;99.90
15296;DHT22;7749;49.964;7.890;2024-01-06T13:13:23;7.50;99.90
15296;DHT22;7749;49.964;7.890;2024-01-06T13:15:51;7.30;99.90
15296;DHT22;7749;49.964;7.890;2024-01-06T13:18:19;7.20;99.90
15296;DHT22;7749;49.964;7.890;2024-01-06T13:20:47;7.20;99.90
15296;DHT22;7749;49.964;7.890;2024-01-06T13:23:15;7.30;99.90
15296;DHT22;7749;49.964;7.890;2024-01-06T13:25:42;7.30;99.90
15296;DHT22;7749;49.964;7.890;2024-01-06T13:28:10;7.20;99.90
15296;DHT22;7749;49.964;7.890;2024-01-06T13:30:39;7.10;99.90
15296;DHT22;7749;49.964;7.890;2024-01-06T13:33:09;7.30;99.90
15296;DHT22;7749;49.964;7.890;2024-01-06T13:35:38;7.30;99.90
15296;DHT22;7749;49.964;7.890;2024-01-06T13:38:06;7.30;99.90
15296;DHT22;7749;49.964;7.890;2024-01-06T13:40:34;7.30;99.90
15296;DHT22;7749;49.964;7.890;2024-01-06T13:43:02;7.20;99.90
15296;DHT22;7749;49.964;7.890;2024-01-06T13:45:32;7.20;99.90
15296;DHT22;7749;49.964;7.890;2024-01-06T13:48:01;7.20;99.90
15296;DHT22;7749;49.964;7.890;2024-01-06T13:50:52;7.10;99.90
15296;DHT22;7749;49.964;7.890;2024-01-06T13:53:23;7.10;99.90
15296;DHT22;7749;49.964;7.890;2024-01-06T13:56:03;7.10;99.90
15296;DHT22;7749;49.964;7.890;2024-01-06T13:58:33;7.10;99.90
15296;DHT22;7749;49.964;7.890;2024-01-06T14:01:32;7.20;99.90
15296;DHT22;7749;49.964;7.890;2024-01-06T14:04:01;7.30;99.90
15296;DHT22;7749;49.964;7.890;2024-01-06T14:06:58;7.30;99.90
15296;DHT22;7749;49.964;7.890;2024-01-06T14:09:45;7.10;99.90
15296;DHT22;7749;49.964;7.890;2024-01-06T14:12:57;7.10;99.90
15296;DHT22;7749;49.964;7.890;2024-01-06T14:16:00;7.10;99.90
15296;DHT22;7749;49.964;7.890;2024-01-06T14:18:54;7.00;99.90
15296;DHT22;7749;49.964;7.890;2024-01-06T14:21:24;7.00;99.90
15296;DHT22;7749;49.964;7.890;2024-01-06T14:23:52;7.00;99.90
15296;DHT22;7749;49.964;7.890;2024-01-06T14:26:29;6.90;99.90
15296;DHT22;7749;49.964;7.890;2024-01-06T14:29:07;6.90;99.90
15296;DHT22;7749;49.964;7.890;2024-01-06T14:31:38;6.90;99.90
15296;DHT22;7749;49.964;7.890;2024-01-06T14:34:07;6.80;99.90
15296;DHT22;7749;49.964;7.890;2024-01-06T14:36:35;6.80;99.90
15296;DHT22;7749;49.964;7.890;2024-01-06T14:39:12;6.80;99.90
15296;DHT22;7749;49.964;7.890;2024-01-06T14:41:54;6.70;99.90
15296;DHT22;7749;49.964;7.890;2024-01-06T14:44:32;6.70;99.90
15296;DHT22;7749;49.964;7.890;2024-01-06T14:47:05;6.70;99.90
15296;DHT22;7749;49.964;7.890;2024-01-06T14:49:49;6.70;99.90
15296;DHT22;7749;49.964;7.890;2024-01-06T14:52:17;6.60;99.90
15296;DHT22;7749;49.964;7.890;2024-01-06T14:54:57;6.70;99.90
15296;DHT22;7749;49.964;7.890;2024-01-06T14:57:26;6.60;99.90
15296;DHT22;7749;49.964;7.890;2024-01-06T14:59:54;6.60;99.90
15296;DHT22;7749;49.964;7.890;2024-01-06T15:02:22;6.50;99.90
15296;DHT22;7749;49.964;7.890;2024-01-06T15:04:50;6.50;99.90
15296;DHT22;7749;49.964;7.890;2024-01-06T15:07:17;6.40;99.90
15296;DHT22;7749;49.964;7.890;2024-01-06T15:09:45;6.40;99.90
15296;DHT22;7749;49.964;7.890;2024-01-06T15:12:13;6.30;99.90
15296;DHT22;7749;49.964;7.890;2024-01-06T15:14:41;6.30;99.90
15296;DHT22;7749;49.964;7.890;2024-01-06T15:17:09;6.20;99.90
15296;DHT22;7749;49.964;7.890;2024-01-06T15:19:37;6.20;99.90
15296;DHT22;7749;49.964;7.890;2024-01-06T15:22:05;6.30;99.90
15296;DHT22;7749;49.964;7.890;2024-01-06T15:24:33;6.20;99.90
15296;DHT22;7749;49.964;7.890;2024-01-06T15:27:00;6.20;99.90
15296;DHT22;7749;49.964;7.890;2024-01-06T15:29:28;6.30;99.90
15296;DHT22;7749;49.964;7.890;2024-01-06T15:31:55;6.20;99.90
15296;DHT22;7749;49.964;7.890;2024-01-06T15:34:24;6.20;99.90
15296;DHT22;7749;49.964;7.890;2024-01-06T15:36:54;6.20;99.90
15296;DHT22;7749;49.964;7.890;2024-01-06T15:39:26;6.20;99.90
15296;DHT22;7749;49.964;7.890;2024-01-06T15:41:54;6.20;99.90
15296;DHT22;7749;49.964;7.890;2024-01-06T15:44:21;6.10;99.90
15296;DHT22;7749;49.964;7.890;2024-01-06T15:46:49;6.10;99.90
15296;DHT22;7749;49.964;7.890;2024-01-06T15:49:17;6.10;99.90
15296;DHT22;7749;49.964;7.890;2024-01-06T15:51:48;6.10;99.90
15296;DHT22;7749;49.964;7.890;2024-01-06T15:54:18;6.10;99.90
15296;DHT22;7749;49.964;7.890;2024-01-06T15:56:50;6.10;99.90
15296;DHT22;7749;49.964;7.890;2024-01-06T15:59:18;6.10;99.90
15296;DHT22;7749;49.964;7.890;2024-01-06T16:01:47;6.10;99.90
15296;DHT22;7749;49.964;7.890;2024-01-06T16:04:16;6.10;99.90
15296;DHT22;7749;49.964;7.890;2024-01-06T16:06:44;6.10;99.90
15296;DHT22;7749;49.964;7.890;2024-01-06T16:09:13;6.10;99.90
15296;DHT22;7749;49.964;7.890;2024-01-06T16:11:41;6.10;99.90
15296;DHT22;7749;49.964;7.890;2024-01-06T16:14:08;6.00;99.90
15296;DHT22;7749;49.964;7.890;2024-01-06T16:16:36;6.10;99.90
15296;DHT22;7749;49.964;7.890;2024-01-06T16:19:07;6.10;99.90
15296;DHT22;7749;49.964;7.890;2024-01-06T16:21:44;6.10;99.90
15296;DHT22;7749;49.964;7.890;2024-01-06T16:24:12;6.00;99.90
15296;DHT22;7749;49.964;7.890;2024-01-06T16:26:58;6.10;99.90
15296;DHT22;7749;49.964;7.890;2024-01-06T16:30:19;6.10;99.90
15296;DHT22;7749;49.964;7.890;2024-01-06T16:32:47;6.00;99.90
15296;DHT22;7749;49.964;7.890;2024-01-06T16:35:15;6.00;99.90
15296;DHT22;7749;49.964;7.890;2024-01-06T16:37:43;6.00;99.90
15296;DHT22;7749;49.964;7.890;2024-01-06T16:40:11;6.00;99.90
15296;DHT22;7749;49.964;7.890;2024-01-06T16:42:39;6.00;99.90
15296;DHT22;7749;49.964;7.890;2024-01-06T16:45:07;6.00;99.90
15296;DHT22;7749;49.964;7.890;2024-01-06T16:47:36;6.00;99.90
15296;DHT22;7749;49.964;7.890;2024-01-06T16:50:07;5.90;99.90
15296;DHT22;7749;49.964;7.890;2024-01-06T16:52:38;6.00;99.90
15296;DHT22;7749;49.964;7.890;2024-01-06T16:55:10;5.90;99.90
15296;DHT22;7749;49.964;7.890;2024-01-06T16:57:38;5.80;99.90
15296;DHT22;7749;49.964;7.890;2024-01-06T17:00:06;5.90;99.90
15296;DHT22;7749;49.964;7.890;2024-01-06T17:02:43;5.90;99.90
15296;DHT22;7749;49.964;7.890;2024-01-06T17:05:13;5.90;99.90
15296;DHT22;7749;49.964;7.890;2024-01-06T17:07:43;5.90;99.90
15296;DHT22;7749;49.964;7.890;2024-01-06T17:10:16;5.90;99.90
15296;DHT22;7749;49.964;7.890;2024-01-06T17:12:43;5.90;99.90
15296;DHT22;7749;49.964;7.890;2024-01-06T17:15:11;5.90;99.90